Time;durP1;ratioP1;P1;durP2;ratioP2;P2;SDS_P1;SDS_P2;PMS_P1;PMS_P2;Temp;Humidity;BMP_temperature;BMP_pressure;BME280_temperature;BME280_humidity;BME280_pressure;Samples;Min_cycle;Max_cycle;Signal;HPM_P1;HPM_P2
2022/08/10 00:00:44;;;;;;;;;;;;;;;22.15;40.47;100359.16;4345931;33;34059;-68
2022/08/10 00:03:12;;;;;;;;;;;;;;;22.13;40.30;100362.22;4346779;33;34057;-70
2022/08/10 00:05:39;;;;;;;;;;;;;;;22.05;40.74;100351.09;4346779;33;34212;-69
2022/08/10 00:08:19;;;;;;;;;;;;;;;21.84;41.05;100357.09;4346024;33;34376;-73
2022/08/10 00:10:53;;;;;;;;;;;;;;;22.06;40.56;100352.75;4345587;32;33924;-71
2022/08/10 00:13:21;;;;;;;;;;;;;;;22.00;41.06;100352.03;4346831;33;33293;-73
2022/08/10 00:15:48;;;;;;;;;;;;;;;22.08;41.15;100344.97;4347196;32;34706;-67
2022/08/10 00:18:22;;;;;;;;;;;;;;;22.00;41.13;100342.94;4346718;33;34291;-67
2022/08/10 00:21:05;;;;;;;;;;;;;;;22.20;40.68;100342.47;4345040;33;34346;-68
2022/08/10 00:23:33;;;;;;;;;;;;;;;22.20;40.71;100341.63;4363775;32;34370;-67
2022/08/10 00:26:00;;;;;;;;;;;;;;;22.43;40.20;100348.03;4345738;33;35224;-68
2022/08/10 00:28:28;;;;;;;;;;;;;;;22.43;40.20;100342.50;4346292;33;34262;-68
2022/08/10 00:30:55;;;;;;;;;;;;;;;22.17;40.85;100351.38;4343139;32;34939;-68
2022/08/10 00:33:23;;;;;;;;;;;;;;;21.97;41.48;100349.09;4363725;32;33071;-67
2022/08/10 00:35:50;;;;;;;;;;;;;;;22.35;40.53;100337.72;4346094;32;34932;-68
2022/08/10 00:38:17;;;;;;;;;;;;;;;22.46;40.41;100344.63;4344707;33;34054;-67
2022/08/10 00:40:45;;;;;;;;;;;;;;;22.45;40.30;100348.56;4346426;33;34051;-69
2022/08/10 00:43:12;;;;;;;;;;;;;;;22.51;39.88;100339.81;4346156;33;34788;-70
2022/08/10 00:45:39;;;;;;;;;;;;;;;22.25;40.85;100336.84;4342756;32;33894;-74
2022/08/10 00:48:06;;;;;;;;;;;;;;;21.57;42.35;100335.84;4363373;32;34158;-68
2022/08/10 00:50:34;;;;;;;;;;;;;;;21.40;42.71;100338.37;4343911;32;34011;-74
2022/08/10 00:53:01;;;;;;;;;;;;;;;21.64;42.12;100338.19;4346258;32;34353;-68
2022/08/10 00:55:28;;;;;;;;;;;;;;;21.64;42.33;100339.03;4346851;32;33535;-70
2022/08/10 00:57:55;;;;;;;;;;;;;;;21.69;42.24;100343.62;4346161;33;33151;-69
2022/08/10 01:00:23;;;;;;;;;;;;;;;21.36;42.99;100343.72;4347106;32;34213;-69
2022/08/10 01:02:50;;;;;;;;;;;;;;;21.54;42.72;100344.75;4346169;33;34103;-69
2022/08/10 01:05:19;;;;;;;;;;;;;;;21.58;42.57;100343.00;4346049;33;35137;-70
2022/08/10 01:08:08;;;;;;;;;;;;;;;21.68;42.49;100344.72;4346118;33;33996;-70
2022/08/10 01:10:35;;;;;;;;;;;;;;;21.83;42.30;100347.16;4345924;33;34196;-70
2022/08/10 01:13:11;;;;;;;;;;;;;;;21.00;44.06;100338.87;4347205;33;34298;-71
2022/08/10 01:15:46;;;;;;;;;;;;;;;21.29;43.53;100343.28;4346348;32;34310;-74
2022/08/10 01:18:20;;;;;;;;;;;;;;;21.29;43.60;100335.84;4346129;33;34533;-76
2022/08/10 01:20:56;;;;;;;;;;;;;;;21.35;43.39;100335.72;4347140;33;33924;-69
2022/08/10 01:23:25;;;;;;;;;;;;;;;21.28;43.81;100338.91;4347238;33;33817;-69
2022/08/10 01:25:58;;;;;;;;;;;;;;;20.85;44.72;100330.88;4345569;33;35153;-68
2022/08/10 01:28:42;;;;;;;;;;;;;;;20.92;44.82;100338.75;4345845;33;33654;-71
2022/08/10 01:31:10;;;;;;;;;;;;;;;21.30;43.92;100337.47;4347258;32;34311;-71
2022/08/10 01:33:43;;;;;;;;;;;;;;;21.10;44.50;100344.19;4345697;33;32940;-71
2022/08/10 01:36:26;;;;;;;;;;;;;;;20.93;44.86;100341.22;4345326;33;34442;-70
2022/08/10 01:38:59;;;;;;;;;;;;;;;21.03;44.58;100343.75;4347490;33;34421;-68
2022/08/10 01:41:42;;;;;;;;;;;;;;;21.01;44.64;100337.72;4351532;32;34375;-74
2022/08/10 01:44:14;;;;;;;;;;;;;;;21.10;44.59;100337.84;4362571;32;33543;-66
2022/08/10 01:46:44;;;;;;;;;;;;;;;20.99;44.66;100351.03;4361849;32;34517;-68
2022/08/10 01:49:11;;;;;;;;;;;;;;;21.04;44.87;100345.41;4362498;32;35110;-68
2022/08/10 01:51:39;;;;;;;;;;;;;;;20.75;45.63;100345.66;4362137;32;34070;-68
2022/08/10 01:54:11;;;;;;;;;;;;;;;20.92;45.16;100347.03;4362510;32;34113;-69
2022/08/10 01:56:39;;;;;;;;;;;;;;;20.75;45.94;100348.41;4363481;32;34367;-70
2022/08/10 01:59:26;;;;;;;;;;;;;;;20.81;45.47;100351.91;4362134;32;35402;-68
2022/08/10 02:01:55;;;;;;;;;;;;;;;21.31;44.53;100357.59;4363233;32;35257;-71
2022/08/10 02:04:23;;;;;;;;;;;;;;;21.19;44.86;100357.28;4363781;32;33427;-76
2022/08/10 02:06:51;;;;;;;;;;;;;;;21.49;44.11;100353.97;4361903;32;33391;-68
2022/08/10 02:09:24;;;;;;;;;;;;;;;21.36;44.26;100352.00;4363311;32;34465;-69
2022/08/10 02:11:51;;;;;;;;;;;;;;;21.00;45.41;100357.38;4363374;32;34896;-70
2022/08/10 02:15:00;;;;;;;;;;;;;;;21.19;44.92;100354.53;4361060;32;33313;-69
2022/08/10 02:17:35;;;;;;;;;;;;;;;21.62;43.92;100345.94;4361740;32;34804;-70
2022/08/10 02:20:24;;;;;;;;;;;;;;;21.37;44.53;100344.53;4362477;32;34124;-71
2022/08/10 02:22:54;;;;;;;;;;;;;;;21.20;45.13;100354.22;4361938;32;34134;-75
2022/08/10 02:25:21;;;;;;;;;;;;;;;20.99;45.63;100355.72;4361909;32;33104;-70
2022/08/10 02:28:10;;;;;;;;;;;;;;;21.50;44.52;100352.00;4362238;32;33959;-70
2022/08/10 02:30:37;;;;;;;;;;;;;;;;;;4363128;32;34233;-70
2022/08/10 02:33:04;;;;;;;;;;;;;;;21.49;44.42;100345.69;4348580;32;32875;-69
2022/08/10 02:35:31;;;;;;;;;;;;;;;21.63;44.16;100347.59;4347025;33;33476;-71
2022/08/10 02:38:19;;;;;;;;;;;;;;;21.60;44.01;100348.25;4347565;33;33677;-69
2022/08/10 02:40:48;;;;;;;;;;;;;;;21.06;45.56;100362.47;4347240;33;34437;-72
2022/08/10 02:43:37;;;;;;;;;;;;;;;21.50;44.39;100358.34;4347370;33;34183;-69
2022/08/10 02:46:29;;;;;;;;;;;;;;;21.66;44.06;100360.78;4353591;32;33102;-69
2022/08/10 02:49:00;;;;;;;;;;;;;;;21.92;43.43;100367.41;4361758;32;34415;-72
2022/08/10 02:51:29;;;;;;;;;;;;;;;21.96;43.55;100364.84;4361701;32;34380;-69
2022/08/10 02:54:20;;;;;;;;;;;;;;;22.48;43.00;100362.56;4362159;32;34276;-68
2022/08/10 02:56:50;;;;;;;;;;;;;;;23.02;42.27;100370.91;4362757;32;33291;-68
2022/08/10 02:59:22;;;;;;;;;;;;;;;23.17;41.34;100372.44;4361933;32;35074;-68
2022/08/10 03:01:51;;;;;;;;;;;;;;;23.14;41.83;100373.09;4360490;32;34350;-69
2022/08/10 03:04:19;;;;;;;;;;;;;;;23.09;42.07;100381.56;4361624;32;33956;-69
2022/08/10 03:07:07;;;;;;;;;;;;;;;23.05;42.37;100378.59;4362080;32;33449;-69
2022/08/10 03:09:35;;;;;;;;;;;;;;;22.83;43.31;100379.41;4361747;32;33617;-67
2022/08/10 03:12:04;;;;;;;;;;;;;;;23.00;43.16;100384.25;4362165;32;34392;-68
2022/08/10 03:14:51;;;;;;;;;;;;;;;22.75;43.67;100385.69;4362010;32;35277;-68
2022/08/10 03:17:18;;;;;;;;;;;;;;;22.94;43.75;100386.31;4360353;32;33058;-69
2022/08/10 03:19:46;;;;;;;;;;;;;;;22.26;44.87;100395.72;4362968;32;34050;-68
2022/08/10 03:22:33;;;;;;;;;;;;;;;22.39;45.08;100391.28;4361760;32;34554;-70
2022/08/10 03:25:00;;;;;;;;;;;;;;;22.45;44.46;100399.13;4361565;32;33812;-68
2022/08/10 03:27:28;;;;;;;;;;;;;;;22.46;44.86;100411.00;4361625;32;33251;-69
2022/08/10 03:29:55;;;;;;;;;;;;;;;22.36;45.38;100406.53;4347972;32;34201;-67
2022/08/10 03:32:42;;;;;;;;;;;;;;;22.58;44.63;100394.69;4346957;33;35404;-69
2022/08/10 03:35:10;;;;;;;;;;;;;;;21.90;45.22;100404.78;4347580;33;33997;-68
2022/08/10 03:37:37;;;;;;;;;;;;;;;21.93;45.18;100412.44;4346620;33;34255;-68
2022/08/10 03:40:05;;;;;;;;;;;;;;;22.17;45.09;100412.19;4346670;32;34144;-70
2022/08/10 03:42:35;;;;;;;;;;;;;;;21.64;45.82;100407.22;4346826;32;34419;-69
2022/08/10 03:45:04;;;;;;;;;;;;;;;22.19;45.51;100411.88;4346508;33;34942;-68
2022/08/10 03:47:32;;;;;;;;;;;;;;;22.23;44.98;100408.22;4346399;33;32920;-71
2022/08/10 03:50:00;;;;;;;;;;;;;;;22.43;44.47;100398.62;4346794;33;35435;-70
2022/08/10 03:52:47;;;;;;;;;;;;;;;22.20;44.25;100406.06;4347379;33;34053;-69
2022/08/10 03:55:14;;;;;;;;;;;;;;;21.63;44.92;100406.41;4347723;33;34083;-71
2022/08/10 03:58:02;;;;;;;;;;;;;;;21.59;44.32;100410.09;4346132;32;33038;-70
2022/08/10 04:00:33;;;;;;;;;;;;;;;21.74;44.34;100417.25;4346248;33;34060;-70
2022/08/10 04:03:03;;;;;;;;;;;;;;;21.96;43.79;100406.28;4347701;33;34490;-68
2022/08/10 04:05:31;;;;;;;;;;;;;;;21.99;43.87;100413.97;4346488;33;34294;-76
2022/08/10 04:08:05;;;;;;;;;;;;;;;22.12;43.84;100415.88;4346629;33;33529;-68
2022/08/10 04:10:34;;;;;;;;;;;;;;;22.43;42.94;100422.69;4346259;33;34412;-70
2022/08/10 04:13:01;;;;;;;;;;;;;;;21.90;44.04;100424.94;4347769;32;34445;-71
2022/08/10 04:15:28;;;;;;;;;;;;;;;22.17;43.75;100428.75;4347496;33;34097;-70
2022/08/10 04:17:56;;;;;;;;;;;;;;;22.61;42.65;100429.19;4350178;32;33075;-71
2022/08/10 04:20:34;;;;;;;;;;;;;;;22.71;41.91;100423.41;4361606;32;35298;-74
2022/08/10 04:23:03;;;;;;;;;;;;;;;22.51;42.29;100416.44;4361144;32;35277;-69
2022/08/10 04:25:30;;;;;;;;;;;;;;;22.42;42.55;100421.88;4362382;32;33791;-69
2022/08/10 04:27:58;;;;;;;;;;;;;;;22.85;41.25;100413.13;4360719;32;34216;-71
2022/08/10 04:30:26;;;;;;;;;;;;;;;22.69;41.50;100412.66;4362471;32;34347;-71
2022/08/10 04:32:54;;;;;;;;;;;;;;;22.38;43.08;100428.34;4348630;32;35318;-67
2022/08/10 04:35:23;;;;;;;;;;;;;;;22.55;42.09;100416.59;4333979;33;35082;-67
2022/08/10 04:37:52;;;;;;;;;;;;;;;23.22;40.44;100416.63;4346018;33;32783;-67
2022/08/10 04:40:19;;;;;;;;;;;;;;;22.73;41.44;100415.63;4346082;33;35068;-70
2022/08/10 04:42:58;;;;;;;;;;;;;;;22.97;41.25;100418.06;4345398;32;34464;-69
2022/08/10 04:45:29;;;;;;;;;;;;;;;23.14;40.73;100412.66;4347138;33;34917;-67
2022/08/10 04:48:21;;;;;;;;;;;;;;;23.25;40.40;100415.97;4345553;33;33432;-69
2022/08/10 04:51:09;;;;;;;;;;;;;;;24.11;38.97;100419.41;4347012;33;34189;-69
2022/08/10 04:53:48;;;;;;;;;;;;;;;23.77;39.21;100420.94;4346984;33;34582;-70
2022/08/10 04:56:35;;;;;;;;;;;;;;;23.74;39.51;100422.38;4345929;32;34168;-68
2022/08/10 04:59:04;;;;;;;;;;;;;;;23.60;39.53;100426.41;4345441;33;33324;-68
2022/08/10 05:01:31;;;;;;;;;;;;;;;23.68;38.88;100428.38;4346101;33;34421;-68
2022/08/10 05:04:19;;;;;;;;;;;;;;;24.14;39.15;100419.56;4346012;33;35112;-69
2022/08/10 05:07:07;;;;;;;;;;;;;;;24.06;38.51;100427.84;4345690;33;33528;-68
2022/08/10 05:09:35;;;;;;;;;;;;;;;23.89;39.02;100426.69;4345640;33;33063;-69
2022/08/10 05:12:22;;;;;;;;;;;;;;;23.93;39.01;100424.91;4330932;33;34932;-68
2022/08/10 05:14:50;;;;;;;;;;;;;;;24.50;38.26;100426.00;4331982;33;34446;-68
2022/08/10 05:17:18;;;;;;;;;;;;;;;24.01;38.04;100425.25;4331689;33;34253;-76
2022/08/10 05:19:45;;;;;;;;;;;;;;;23.87;37.86;100417.88;4332475;33;33394;-69
2022/08/10 05:22:33;;;;;;;;;;;;;;;23.75;39.27;100418.50;4332184;33;34796;-69
2022/08/10 05:25:01;;;;;;;;;;;;;;;24.01;38.34;100428.03;4332801;32;34530;-74
2022/08/10 05:27:28;;;;;;;;;;;;;;;23.55;38.76;100419.06;4341628;33;35459;-72
2022/08/10 05:29:56;;;;;;;;;;;;;;;23.68;38.98;100411.75;4346822;32;33430;-67
2022/08/10 05:32:32;;;;;;;;;;;;;;;24.13;37.14;100431.00;4351573;32;34394;-67
2022/08/10 05:35:20;;;;;;;;;;;;;;;23.75;37.74;100420.41;4361032;32;34445;-68
2022/08/10 05:37:48;;;;;;;;;;;;;;;23.59;38.85;100422.00;4360483;32;34237;-67
2022/08/10 05:40:37;;;;;;;;;;;;;;;23.58;38.12;100412.84;4359720;32;33721;-67
2022/08/10 05:43:04;;;;;;;;;;;;;;;23.68;38.30;100423.66;4358878;32;34371;-66
2022/08/10 05:45:31;;;;;;;;;;;;;;;23.89;38.30;100423.13;4360226;32;35252;-68
2022/08/10 05:47:59;;;;;;;;;;;;;;;23.74;38.59;100427.13;4360118;32;33718;-67
2022/08/10 05:50:46;;;;;;;;;;;;;;;23.54;38.11;100426.56;4346021;32;32826;-66
2022/08/10 05:53:13;;;;;;;;;;;;;;;24.01;37.20;100428.84;4344887;33;35007;-67
2022/08/10 05:56:00;;;;;;;;;;;;;;;23.86;37.75;100424.56;4345594;32;34583;-68
2022/08/10 05:58:28;;;;;;;;;;;;;;;23.96;37.94;100429.00;4344789;33;34821;-67
2022/08/10 06:00:55;;;;;;;;;;;;;;;23.90;37.07;100421.97;4345510;32;32824;-67
2022/08/10 06:03:25;;;;;;;;;;;;;;;23.94;36.53;100422.97;4345289;33;34384;-67
2022/08/10 06:05:53;;;;;;;;;;;;;;;23.90;37.10;100425.53;4345974;32;34214;-66
2022/08/10 06:08:22;;;;;;;;;;;;;;;24.25;36.86;100422.84;4344741;33;34897;-68
2022/08/10 06:10:54;;;;;;;;;;;;;;;23.58;38.49;100429.47;4345715;33;33528;-67
2022/08/10 06:16:43;;;;;;;;;;;;;;;24.03;37.32;100417.44;4355901;32;34217;-66
2022/08/10 06:19:10;;;;;;;;;;;;;;;24.39;36.55;100419.94;4344435;32;34917;-67
2022/08/10 06:21:41;;;;;;;;;;;;;;;24.46;35.92;100430.53;4363171;32;33566;-66
2022/08/10 06:24:28;;;;;;;;;;;;;;;24.43;36.04;100425.62;4344032;33;33495;-67
2022/08/10 06:26:57;;;;;;;;;;;;;;;24.87;35.17;100432.81;4364580;32;34441;-66
2022/08/10 06:29:24;;;;;;;;;;;;;;;24.62;34.76;100433.66;4346981;33;35037;-66
2022/08/10 06:31:52;;;;;;;;;;;;;;;24.22;36.94;100425.47;4346089;33;33252;-66
2022/08/10 06:34:39;;;;;;;;;;;;;;;24.44;36.97;100430.84;4344618;32;35125;-67
2022/08/10 06:37:06;;;;;;;;;;;;;;;24.36;35.92;100421.41;4347122;33;34320;-67
2022/08/10 06:39:34;;;;;;;;;;;;;;;24.50;36.12;100426.00;4364679;32;33975;-66
2022/08/10 06:42:05;;;;;;;;;;;;;;;24.77;36.03;100430.37;4347425;33;34362;-66
2022/08/10 06:44:46;;;;;;;;;;;;;;;24.47;36.26;100426.59;4333236;33;35088;-66
2022/08/10 06:47:13;;;;;;;;;;;;;;;24.23;36.36;100427.88;4331328;33;34593;-68
2022/08/10 06:49:51;;;;;;;;;;;;;;;24.55;37.44;100423.84;4342715;32;34813;-66
2022/08/10 06:52:18;;;;;;;;;;;;;;;24.22;36.45;100419.91;4348379;33;33525;-68
2022/08/10 06:54:45;;;;;;;;;;;;;;;24.29;37.00;100425.78;4346556;33;35198;-66
2022/08/10 06:57:13;;;;;;;;;;;;;;;24.00;37.36;100421.66;4353758;32;33837;-69
2022/08/10 06:59:45;;;;;;;;;;;;;;;24.53;36.88;100426.16;4363031;32;34209;-67
2022/08/10 07:02:18;;;;;;;;;;;;;;;24.48;36.87;100418.00;4343100;32;33616;-67
2022/08/10 07:04:51;;;;;;;;;;;;;;;24.65;36.35;100424.69;4332950;32;34569;-68
2022/08/10 07:07:20;;;;;;;;;;;;;;;24.98;36.14;100431.34;4345458;33;33924;-67
2022/08/10 07:09:48;;;;;;;;;;;;;;;25.11;35.77;100432.28;4347207;33;34425;-65
2022/08/10 07:12:15;;;;;;;;;;;;;;;24.94;34.76;100430.34;4355397;32;33540;-68
2022/08/10 07:14:43;;;;;;;;;;;;;;;24.84;35.34;100430.72;4351256;32;34245;-67
2022/08/10 07:17:15;;;;;;;;;;;;;;;24.56;36.23;100433.03;4345715;33;34196;-72
2022/08/10 07:19:45;;;;;;;;;;;;;;;24.77;36.92;100424.84;4346301;32;33908;-67
2022/08/10 07:22:19;;;;;;;;;;;;;;;24.75;35.56;100427.13;4360466;32;33456;-68
2022/08/10 07:25:07;;;;;;;;;;;;;;;25.14;35.83;100412.22;4358551;32;34933;-68
2022/08/10 07:27:34;;;;;;;;;;;;;;;24.73;36.18;100410.81;4346022;32;34176;-68
2022/08/10 07:30:22;;;;;;;;;;;;;;;25.00;35.37;100427.44;4344474;32;34263;-70
2022/08/10 07:32:49;;;;;;;;;;;;;;;24.71;36.64;100415.06;4346129;33;33102;-70
2022/08/10 07:35:18;;;;;;;;;;;;;;;25.40;36.65;100408.56;4343506;33;34047;-68
2022/08/10 07:37:48;;;;;;;;;;;;;;;25.19;35.36;100414.00;4345513;33;33329;-70
2022/08/10 07:40:16;;;;;;;;;;;;;;;25.18;35.32;100407.63;4343619;32;34901;-68
2022/08/10 07:42:43;;;;;;;;;;;;;;;25.33;35.41;100411.03;4363950;32;34053;-69
2022/08/10 07:45:12;;;;;;;;;;;;;;;24.79;36.25;100410.63;4345330;33;34384;-72
2022/08/10 07:47:57;;;;;;;;;;;;;;;24.86;35.42;100413.72;4362178;32;33879;-74
2022/08/10 07:50:31;;;;;;;;;;;;;;;24.79;35.85;100407.84;4342197;33;35112;-71
2022/08/10 07:53:01;;;;;;;;;;;;;;;25.28;35.58;100403.69;4345699;33;34333;-73
2022/08/10 07:55:30;;;;;;;;;;;;;;;24.92;35.54;100404.06;4342649;32;35179;-71
2022/08/10 07:58:18;;;;;;;;;;;;;;;25.47;34.96;100414.41;4346003;33;34546;-70
2022/08/10 08:00:45;;;;;;;;;;;;;;;24.91;35.59;100417.16;4344818;33;34551;-72
2022/08/10 08:03:13;;;;;;;;;;;;;;;25.21;33.70;100414.50;4345103;33;33261;-72
2022/08/10 08:05:41;;;;;;;;;;;;;;;25.32;34.42;100413.00;4345761;32;34302;-71
2022/08/10 08:08:28;;;;;;;;;;;;;;;25.53;33.58;100418.66;4346309;32;35390;-72
2022/08/10 08:10:56;;;;;;;;;;;;;;;25.41;33.50;100412.16;4346405;32;33866;-71
2022/08/10 08:13:24;;;;;;;;;;;;;;;25.24;34.71;100413.03;4350711;32;32653;-72
2022/08/10 08:15:52;;;;;;;;;;;;;;;25.40;33.75;100410.50;4339751;32;35047;-71
2022/08/10 08:18:39;;;;;;;;;;;;;;;25.50;34.91;100415.69;4344226;33;34367;-73
2022/08/10 08:21:24;;;;;;;;;;;;;;;25.67;33.77;100403.69;4343965;32;33571;-72
2022/08/10 08:24:15;;;;;;;;;;;;;;;25.52;32.27;100405.06;4344701;32;33155;-74
2022/08/10 08:27:01;;;;;;;;;;;;;;;25.54;32.29;100402.78;4360484;32;33528;-70
2022/08/10 08:29:30;;;;;;;;;;;;;;;25.38;33.62;100405.31;4343061;33;34026;-68
2022/08/10 08:31:57;;;;;;;;;;;;;;;25.64;32.49;100409.91;4344817;33;34699;-70
2022/08/10 08:34:30;;;;;;;;;;;;;;;25.37;32.53;100400.88;4343947;33;33243;-73
2022/08/10 08:36:59;;;;;;;;;;;;;;;25.78;32.70;100399.37;4343452;33;35051;-67
2022/08/10 08:39:27;;;;;;;;;;;;;;;25.99;32.49;100403.06;4362304;32;35297;-69
2022/08/10 08:42:02;;;;;;;;;;;;;;;26.25;32.42;100399.28;4342936;33;35027;-69
2022/08/10 08:44:49;;;;;;;;;;;;;;;25.94;31.71;100397.69;4361862;32;34041;-68
2022/08/10 08:47:17;;;;;;;;;;;;;;;25.72;31.81;100398.78;4343590;33;35230;-69
2022/08/10 08:50:13;;;;;;;;;;;;;;;25.67;31.98;100400.91;4345316;33;34522;-68
2022/08/10 08:52:59;;;;;;;;;;;;;;;25.84;32.93;100402.81;4345638;33;34349;-67
2022/08/10 08:55:29;;;;;;;;;;;;;;;25.91;32.23;100403.91;4344839;33;33184;-69
2022/08/10 08:58:21;;;;;;;;;;;;;;;25.73;32.47;100394.03;4345708;32;33982;-70
2022/08/10 09:00:56;;;;;;;;;;;;;;;26.12;31.12;100403.13;4343437;33;34136;-67
2022/08/10 09:03:33;;;;;;;;;;;;;;;26.59;31.66;100397.41;4363277;32;34059;-67
2022/08/10 09:06:23;;;;;;;;;;;;;;;26.35;31.96;100393.31;4345565;33;32909;-67
2022/08/10 09:08:50;;;;;;;;;;;;;;;26.21;31.66;100395.53;4343905;33;33731;-72
2022/08/10 09:11:17;;;;;;;;;;;;;;;26.24;31.22;100397.66;4343953;33;34272;-70
2022/08/10 09:13:47;;;;;;;;;;;;;;;26.63;30.35;100389.16;4347389;32;34606;-69
2022/08/10 09:16:19;;;;;;;;;;;;;;;25.82;32.54;100402.31;4345755;33;34133;-70
2022/08/10 09:18:48;;;;;;;;;;;;;;;26.17;31.80;100397.38;4361106;32;33937;-69
2022/08/10 09:21:19;;;;;;;;;;;;;;;26.59;31.01;100392.66;4343245;32;34966;-70
2022/08/10 09:23:46;;;;;;;;;;;;;;;26.46;29.67;100385.38;4347065;32;34040;-69
2022/08/10 09:26:46;;;;;;;;;;;;;;;26.75;30.46;100395.59;4346872;33;33983;-75
2022/08/10 09:29:16;;;;;;;;;;;;;;;26.49;29.98;100387.47;4345339;33;35125;-70
2022/08/10 09:31:45;;;;;;;;;;;;;;;26.52;30.19;100380.38;4345272;33;34253;-70
2022/08/10 09:34:51;;;;;;;;;;;;;;;26.51;31.08;100387.13;4344128;33;35027;-74
2022/08/10 09:37:42;;;;;;;;;;;;;;;26.04;30.87;100384.53;4344361;33;33312;-67
2022/08/10 09:40:37;;;;;;;;;;;;;;;25.58;31.65;100387.88;4357360;32;33898;-73
2022/08/10 09:43:24;;;;;;;;;;;;;;;26.08;31.56;100372.41;4344267;33;35114;-70
2022/08/10 09:46:11;;;;;;;;;;;;;;;26.47;32.15;100381.41;4343686;32;35065;-70
2022/08/10 09:48:55;;;;;;;;;;;;;;;26.67;30.55;100385.34;4345090;33;34241;-71
2022/08/10 09:51:29;;;;;;;;;;;;;;;27.07;30.84;100378.41;4361128;32;35032;-69
2022/08/10 09:54:16;;;;;;;;;;;;;;;26.81;31.46;100382.28;4344617;33;35514;-68
2022/08/10 09:56:59;;;;;;;;;;;;;;;26.67;29.84;100388.12;4343715;33;34243;-70
2022/08/10 09:59:53;;;;;;;;;;;;;;;26.59;29.00;100373.16;4343393;32;34060;-70
2022/08/10 10:02:35;;;;;;;;;;;;;;;26.59;30.40;100372.34;4345136;32;34761;-70
2022/08/10 10:05:06;;;;;;;;;;;;;;;26.82;31.48;100369.16;4344548;33;34364;-73
2022/08/10 10:07:33;;;;;;;;;;;;;;;26.82;30.32;100372.75;4346453;33;33941;-73
2022/08/10 10:10:07;;;;;;;;;;;;;;;26.84;29.63;100364.06;4364940;32;34270;-76
2022/08/10 10:12:49;;;;;;;;;;;;;;;27.64;29.37;100358.03;4347135;33;35183;-72
2022/08/10 10:15:26;;;;;;;;;;;;;;;27.13;29.08;100360.31;4345473;32;35514;-69
2022/08/10 10:18:03;;;;;;;;;;;;;;;26.81;29.00;100360.00;4345935;33;34055;-77
2022/08/10 10:20:30;;;;;;;;;;;;;;;27.09;28.10;100359.37;4346906;32;33777;-73
2022/08/10 10:23:14;;;;;;;;;;;;;;;27.38;27.87;100358.38;4346608;32;33757;-68
2022/08/10 10:25:46;;;;;;;;;;;;;;;27.30;28.66;100350.94;4345761;33;34127;-67
2022/08/10 10:28:29;;;;;;;;;;;;;;;27.45;28.67;100349.44;4360030;32;34028;-67
2022/08/10 10:31:24;;;;;;;;;;;;;;;27.36;27.17;100344.00;4359610;32;34058;-70
2022/08/10 10:34:00;;;;;;;;;;;;;;;27.06;27.14;100346.13;4364347;32;32947;-67
2022/08/10 10:36:28;;;;;;;;;;;;;;;27.14;27.99;100340.47;4346810;32;34488;-67
2022/08/10 10:38:56;;;;;;;;;;;;;;;27.22;27.36;100329.59;4346575;32;34576;-68
2022/08/10 10:41:38;;;;;;;;;;;;;;;26.95;28.67;100329.06;4365668;32;33744;-70
2022/08/10 10:44:46;;;;;;;;;;;;;;;27.16;27.93;100331.75;4344760;33;33760;-67
2022/08/10 10:47:32;;;;;;;;;;;;;;;26.65;28.40;100326.44;4345206;33;34446;-67
2022/08/10 10:49:59;;;;;;;;;;;;;;;27.23;27.47;100326.44;4346286;33;35031;-71
2022/08/10 10:52:27;;;;;;;;;;;;;;;27.12;26.69;100320.50;4343574;32;32934;-67
2022/08/10 10:55:03;;;;;;;;;;;;;;;27.71;26.67;100313.69;4339236;33;34217;-69
2022/08/10 10:57:35;;;;;;;;;;;;;;;27.91;25.62;100314.72;4346487;33;35231;-69
2022/08/10 11:00:22;;;;;;;;;;;;;;;27.54;26.95;100316.72;4344267;33;34020;-68
2022/08/10 11:02:50;;;;;;;;;;;;;;;27.15;26.86;100319.00;4345334;33;33987;-70
2022/08/10 11:05:37;;;;;;;;;;;;;;;27.70;25.03;100322.37;4346160;33;34869;-70
2022/08/10 11:08:09;;;;;;;;;;;;;;;27.50;24.64;100319.38;4364095;32;34512;-69
2022/08/10 11:10:44;;;;;;;;;;;;;;;27.66;24.98;100319.47;4344882;33;34148;-68
2022/08/10 11:13:27;;;;;;;;;;;;;;;27.44;25.01;100315.19;4343879;32;34246;-68
2022/08/10 11:16:19;;;;;;;;;;;;;;;27.60;25.15;100307.78;4361800;32;33660;-69
2022/08/10 11:18:46;;;;;;;;;;;;;;;28.24;26.30;100296.94;4345347;33;35002;-70
2022/08/10 11:21:42;;;;;;;;;;;;;;;28.51;25.53;100314.03;4346629;33;34370;-69
2022/08/10 11:24:24;;;;;;;;;;;;;;;28.09;25.42;100297.69;4344123;33;33520;-69
2022/08/10 11:27:20;;;;;;;;;;;;;;;28.60;26.44;100297.97;4360349;32;34274;-68
2022/08/10 11:29:59;;;;;;;;;;;;;;;27.93;26.45;100292.06;4347927;32;34529;-72
2022/08/10 11:32:31;;;;;;;;;;;;;;;28.68;25.61;100296.16;4345627;33;33931;-70
2022/08/10 11:35:09;;;;;;;;;;;;;;;28.37;25.73;100303.28;4346771;32;32657;-69
2022/08/10 11:37:54;;;;;;;;;;;;;;;28.03;25.99;100299.91;4343495;32;34295;-68
2022/08/10 11:40:44;;;;;;;;;;;;;;;28.01;26.32;100300.28;4344649;33;34515;-70
2022/08/10 11:43:20;;;;;;;;;;;;;;;27.94;26.37;100300.03;4348774;32;34477;-68
2022/08/10 11:45:50;;;;;;;;;;;;;;;27.49;25.83;100291.84;4346629;32;32260;-69
2022/08/10 11:48:36;;;;;;;;;;;;;;;28.14;24.03;100283.47;4344411;33;34244;-71
2022/08/10 11:51:24;;;;;;;;;;;;;;;28.40;25.01;100285.78;4344467;33;35332;-69
2022/08/10 11:54:07;;;;;;;;;;;;;;;28.18;24.49;100287.19;4345974;32;34956;-68
2022/08/10 11:56:44;;;;;;;;;;;;;;;28.25;24.83;100290.19;4345220;33;33202;-66
2022/08/10 12:01:57;;;;;;;;;;;;;;;27.99;24.07;100282.25;4345125;33;34385;-70
2022/08/10 12:04:25;;;;;;;;;;;;;;;28.51;23.66;100286.12;4364129;32;34095;-69
2022/08/10 12:06:52;;;;;;;;;;;;;;;28.56;22.94;100299.84;4344994;33;34334;-67
2022/08/10 12:09:25;;;;;;;;;;;;;;;28.70;22.70;100291.81;4362447;32;33751;-68
2022/08/10 12:12:13;;;;;;;;;;;;;;;28.48;22.96;100295.19;4345837;33;35135;-69
2022/08/10 12:14:43;;;;;;;;;;;;;;;28.75;22.62;100283.19;4361610;32;33723;-68
2022/08/10 12:17:19;;;;;;;;;;;;;;;28.34;23.13;100270.50;4343220;33;33046;-68
2022/08/10 12:19:55;;;;;;;;;;;;;;;28.22;24.59;100274.94;4345121;32;34421;-69
2022/08/10 12:22:33;;;;;;;;;;;;;;;28.25;23.51;100276.25;4345553;33;34483;-67
2022/08/10 12:25:02;;;;;;;;;;;;;;;28.56;23.43;100269.12;4355084;32;34505;-68
2022/08/10 12:27:36;;;;;;;;;;;;;;;28.65;22.50;100258.59;4356077;32;33141;-68
2022/08/10 12:30:05;;;;;;;;;;;;;;;28.63;21.21;100260.94;4346326;33;34359;-69
2022/08/10 12:32:44;;;;;;;;;;;;;;;28.33;21.32;100261.28;4359116;32;34414;-69
2022/08/10 12:35:22;;;;;;;;;;;;;;;28.39;22.29;100259.88;4361916;32;34038;-69
2022/08/10 12:38:11;;;;;;;;;;;;;;;28.72;22.74;100258.78;4358761;32;33047;-73
2022/08/10 12:40:43;;;;;;;;;;;;;;;28.87;22.36;100267.53;4347069;33;34093;-71
2022/08/10 12:43:15;;;;;;;;;;;;;;;28.54;22.96;100263.09;4346241;33;34499;-70
2022/08/10 12:46:06;;;;;;;;;;;;;;;28.91;21.98;100260.06;4346460;32;34822;-71
2022/08/10 12:48:47;;;;;;;;;;;;;;;28.92;21.59;100258.88;4359469;32;32928;-70
2022/08/10 12:51:20;;;;;;;;;;;;;;;28.42;20.99;100255.56;4352198;32;34403;-69
2022/08/10 12:54:25;;;;;;;;;;;;;;;28.57;19.89;100260.38;4322811;33;782838;-70
2022/08/10 12:57:00;;;;;;;;;;;;;;;28.53;21.88;100255.88;4328576;33;34986;-69
2022/08/10 12:59:27;;;;;;;;;;;;;;;28.38;22.77;100249.91;4327218;33;33568;-68
2022/08/10 13:01:55;;;;;;;;;;;;;;;28.66;21.58;100259.41;4345921;32;34997;-71
2022/08/10 13:04:36;;;;;;;;;;;;;;;28.54;22.47;100249.12;4362716;32;34195;-71
2022/08/10 13:07:04;;;;;;;;;;;;;;;28.53;22.58;100247.50;4360661;32;35085;-69
2022/08/10 13:09:31;;;;;;;;;;;;;;;28.47;22.67;100235.78;4346244;33;34251;-69
2022/08/10 13:12:00;;;;;;;;;;;;;;;28.48;23.19;100240.19;4346133;33;35204;-69
2022/08/10 13:14:49;;;;;;;;;;;;;;;28.71;22.71;100231.22;4362297;32;35192;-70
2022/08/10 13:17:22;;;;;;;;;;;;;;;28.67;22.53;100224.75;4344186;32;34128;-69
2022/08/10 13:19:59;;;;;;;;;;;;;;;28.88;22.93;100236.44;4359978;32;34956;-69
2022/08/10 13:22:39;;;;;;;;;;;;;;;28.84;22.19;100233.56;4344944;33;34235;-70